sensor_id;sensor_type;location;lat;lon;timestamp;pressure;altitude;pressure_sealevel;temperature;humidity
2188;BME280;1100;52.014;8.540;2023-11-22T00:01:49;101189.00;;;1.39;100.00
2188;BME280;1100;52.014;8.540;2023-11-22T00:04:14;101195.53;;;1.34;100.00
2188;BME280;1100;52.014;8.540;2023-11-22T00:06:40;101198.84;;;1.28;100.00
2188;BME280;1100;52.014;8.540;2023-11-22T00:09:05;101206.88;;;1.20;100.00
2188;BME280;1100;52.014;8.540;2023-11-22T00:11:30;101209.72;;;1.11;100.00
2188;BME280;1100;52.014;8.540;2023-11-22T00:13:56;101210.00;;;1.06;100.00
2188;BME280;1100;52.014;8.540;2023-11-22T00:16:22;101215.69;;;1.01;100.00
2188;BME280;1100;52.014;8.540;2023-11-22T00:18:47;101224.25;;;0.99;100.00
2188;BME280;1100;52.014;8.540;2023-11-22T00:21:12;101213.66;;;0.98;100.00
2188;BME280;1100;52.014;8.540;2023-11-22T00:23:37;101227.69;;;0.96;100.00
2188;BME280;1100;52.014;8.540;2023-11-22T00:26:03;101226.31;;;1.03;100.00
2188;BME280;1100;52.014;8.540;2023-11-22T00:28:30;101215.22;;;0.99;100.00
2188;BME280;1100;52.014;8.540;2023-11-22T00:30:55;101212.84;;;0.97;100.00
2188;BME280;1100;52.014;8.540;2023-11-22T00:33:21;101227.13;;;1.03;100.00
2188;BME280;1100;52.014;8.540;2023-11-22T00:35:46;101225.41;;;0.98;100.00
2188;BME280;1100;52.014;8.540;2023-11-22T00:38:11;101232.25;;;0.92;100.00
2188;BME280;1100;52.014;8.540;2023-11-22T00:40:37;101238.78;;;0.88;100.00
2188;BME280;1100;52.014;8.540;2023-11-22T00:43:02;101234.31;;;0.83;100.00
2188;BME280;1100;52.014;8.540;2023-11-22T00:45:27;101249.03;;;0.78;100.00
2188;BME280;1100;52.014;8.540;2023-11-22T00:47:53;101246.06;;;0.71;100.00
2188;BME280;1100;52.014;8.540;2023-11-22T00:50:18;101245.16;;;0.67;100.00
2188;BME280;1100;52.014;8.540;2023-11-22T00:52:47;101260.00;;;0.66;100.00
2188;BME280;1100;52.014;8.540;2023-11-22T00:55:13;101250.16;;;0.65;100.00
2188;BME280;1100;52.014;8.540;2023-11-22T00:57:38;101257.69;;;0.68;100.00
2188;BME280;1100;52.014;8.540;2023-11-22T01:00:05;101273.91;;;0.73;100.00
2188;BME280;1100;52.014;8.540;2023-11-22T01:02:30;101265.00;;;0.76;100.00
2188;BME280;1100;52.014;8.540;2023-11-22T01:04:55;101262.13;;;0.85;100.00
2188;BME280;1100;52.014;8.540;2023-11-22T01:07:21;101265.81;;;0.89;100.00
2188;BME280;1100;52.014;8.540;2023-11-22T01:09:46;101268.97;;;0.91;100.00
2188;BME280;1100;52.014;8.540;2023-11-22T01:12:11;101272.41;;;0.88;100.00
2188;BME280;1100;52.014;8.540;2023-11-22T01:14:38;101277.78;;;0.84;100.00
2188;BME280;1100;52.014;8.540;2023-11-22T01:17:04;101274.47;;;0.79;100.00
2188;BME280;1100;52.014;8.540;2023-11-22T01:19:29;101275.84;;;0.72;100.00
2188;BME280;1100;52.014;8.540;2023-11-22T01:21:55;101273.34;;;0.67;100.00
2188;BME280;1100;52.014;8.540;2023-11-22T01:24:20;101264.53;;;0.61;100.00
2188;BME280;1100;52.014;8.540;2023-11-22T01:26:46;101255.75;;;0.56;100.00
2188;BME280;1100;52.014;8.540;2023-11-22T01:29:11;101256.31;;;0.49;100.00
2188;BME280;1100;52.014;8.540;2023-11-22T01:31:37;101258.84;;;0.42;100.00
2188;BME280;1100;52.014;8.540;2023-11-22T01:34:03;101259.50;;;0.39;100.00
2188;BME280;1100;52.014;8.540;2023-11-22T01:36:29;101256.78;;;0.39;100.00
2188;BME280;1100;52.014;8.540;2023-11-22T01:38:55;101262.38;;;0.42;100.00
2188;BME280;1100;52.014;8.540;2023-11-22T01:41:21;101268.88;;;0.38;100.00
2188;BME280;1100;52.014;8.540;2023-11-22T01:43:46;101260.41;;;0.30;100.00
2188;BME280;1100;52.014;8.540;2023-11-22T01:46:21;101254.03;;;0.26;100.00
2188;BME280;1100;52.014;8.540;2023-11-22T01:48:48;101257.66;;;0.30;100.00
2188;BME280;1100;52.014;8.540;2023-11-22T01:51:13;101249.34;;;0.27;100.00
2188;BME280;1100;52.014;8.540;2023-11-22T01:53:39;101257.66;;;0.18;100.00
2188;BME280;1100;52.014;8.540;2023-11-22T01:56:05;101265.63;;;0.10;100.00
2188;BME280;1100;52.014;8.540;2023-11-22T01:58:30;101254.44;;;0.03;100.00
2188;BME280;1100;52.014;8.540;2023-11-22T02:00:57;101258.97;;;-0.01;100.00
2188;BME280;1100;52.014;8.540;2023-11-22T02:03:23;101267.97;;;-0.01;100.00
2188;BME280;1100;52.014;8.540;2023-11-22T02:05:48;101274.91;;;-0.03;100.00
2188;BME280;1100;52.014;8.540;2023-11-22T02:08:14;101278.63;;;-0.08;100.00
2188;BME280;1100;52.014;8.540;2023-11-22T02:10:40;101287.84;;;-0.13;100.00
2188;BME280;1100;52.014;8.540;2023-11-22T02:13:06;101289.19;;;-0.19;100.00
2188;BME280;1100;52.014;8.540;2023-11-22T02:15:38;101283.16;;;-0.24;100.00
2188;BME280;1100;52.014;8.540;2023-11-22T02:18:04;101290.75;;;-0.30;100.00
2188;BME280;1100;52.014;8.540;2023-11-22T02:20:31;101298.81;;;-0.34;100.00
2188;BME280;1100;52.014;8.540;2023-11-22T02:22:56;101301.06;;;-0.36;100.00
2188;BME280;1100;52.014;8.540;2023-11-22T02:25:22;101303.69;;;-0.40;100.00
2188;BME280;1100;52.014;8.540;2023-11-22T02:27:47;101296.16;;;-0.43;100.00
2188;BME280;1100;52.014;8.540;2023-11-22T02:30:13;101307.75;;;-0.46;100.00
2188;BME280;1100;52.014;8.540;2023-11-22T02:32:38;101315.63;;;-0.44;100.00
2188;BME280;1100;52.014;8.540;2023-11-22T02:35:04;101319.78;;;-0.47;100.00
2188;BME280;1100;52.014;8.540;2023-11-22T02:37:33;101320.47;;;-0.50;100.00
2188;BME280;1100;52.014;8.540;2023-11-22T02:40:05;101317.72;;;-0.50;100.00
2188;BME280;1100;52.014;8.540;2023-11-22T02:42:33;101323.06;;;-0.54;100.00
2188;BME280;1100;52.014;8.540;2023-11-22T02:44:58;101327.25;;;-0.56;100.00
2188;BME280;1100;52.014;8.540;2023-11-22T02:47:24;101328.88;;;-0.55;100.00
2188;BME280;1100;52.014;8.540;2023-11-22T02:49:49;101327.13;;;-0.60;100.00
2188;BME280;1100;52.014;8.540;2023-11-22T02:52:14;101320.38;;;-0.63;100.00
2188;BME280;1100;52.014;8.540;2023-11-22T02:54:49;101327.47;;;-0.61;100.00
2188;BME280;1100;52.014;8.540;2023-11-22T02:57:14;101333.72;;;-0.61;100.00
2188;BME280;1100;52.014;8.540;2023-11-22T02:59:44;101338.72;;;-0.63;100.00
2188;BME280;1100;52.014;8.540;2023-11-22T03:02:10;101333.13;;;-0.67;100.00
2188;BME280;1100;52.014;8.540;2023-11-22T03:04:35;101337.66;;;-0.71;100.00
2188;BME280;1100;52.014;8.540;2023-11-22T03:07:00;101345.69;;;-0.74;100.00
2188;BME280;1100;52.014;8.540;2023-11-22T03:09:26;101342.47;;;-0.77;100.00
2188;BME280;1100;52.014;8.540;2023-11-22T03:11:52;101349.91;;;-0.77;100.00
2188;BME280;1100;52.014;8.540;2023-11-22T03:14:17;101355.69;;;-0.79;100.00
2188;BME280;1100;52.014;8.540;2023-11-22T03:16:44;101357.94;;;-0.81;100.00
2188;BME280;1100;52.014;8.540;2023-11-22T03:19:09;101365.66;;;-0.83;100.00
2188;BME280;1100;52.014;8.540;2023-11-22T03:21:35;101350.25;;;-0.88;100.00
2188;BME280;1100;52.014;8.540;2023-11-22T03:24:02;101349.59;;;-0.84;100.00
2188;BME280;1100;52.014;8.540;2023-11-22T03:26:29;101353.47;;;-0.85;100.00
2188;BME280;1100;52.014;8.540;2023-11-22T03:28:55;101349.16;;;-0.86;100.00
2188;BME280;1100;52.014;8.540;2023-11-22T03:31:20;101343.69;;;-0.86;100.00
2188;BME280;1100;52.014;8.540;2023-11-22T03:33:46;101343.69;;;-0.86;100.00
2188;BME280;1100;52.014;8.540;2023-11-22T03:36:11;101345.44;;;-0.91;100.00
2188;BME280;1100;52.014;8.540;2023-11-22T03:38:39;101355.09;;;-0.93;100.00
2188;BME280;1100;52.014;8.540;2023-11-22T03:41:04;101353.97;;;-0.92;100.00
2188;BME280;1100;52.014;8.540;2023-11-22T03:43:30;101367.63;;;-0.92;100.00
2188;BME280;1100;52.014;8.540;2023-11-22T03:45:55;101367.63;;;-0.92;100.00
2188;BME280;1100;52.014;8.540;2023-11-22T03:48:20;101373.88;;;-0.92;100.00
2188;BME280;1100;52.014;8.540;2023-11-22T03:50:47;101373.88;;;-0.92;100.00
2188;BME280;1100;52.014;8.540;2023-11-22T03:53:12;101374.22;;;-0.93;100.00
2188;BME280;1100;52.014;8.540;2023-11-22T03:55:38;101388.47;;;-0.88;100.00
2188;BME280;1100;52.014;8.540;2023-11-22T03:58:03;101396.66;;;-0.88;100.00
2188;BME280;1100;52.014;8.540;2023-11-22T04:00:28;101389.63;;;-0.89;100.00
2188;BME280;1100;52.014;8.540;2023-11-22T04:02:54;101396.53;;;-0.91;100.00
2188;BME280;1100;52.014;8.540;2023-11-22T04:05:21;101407.31;;;-0.95;100.00
2188;BME280;1100;52.014;8.540;2023-11-22T04:07:46;101410.38;;;-0.96;100.00
2188;BME280;1100;52.014;8.540;2023-11-22T04:10:12;101401.38;;;-0.97;100.00
2188;BME280;1100;52.014;8.540;2023-11-22T04:12:37;101402.31;;;-0.93;100.00
2188;BME280;1100;52.014;8.540;2023-11-22T04:15:04;101411.94;;;-0.86;100.00
2188;BME280;1100;52.014;8.540;2023-11-22T04:17:29;101411.63;;;-0.85;100.00
2188;BME280;1100;52.014;8.540;2023-11-22T04:19:54;101412.13;;;-0.92;100.00
2188;BME280;1100;52.014;8.540;2023-11-22T04:22:20;101409.72;;;-0.93;100.00
2188;BME280;1100;52.014;8.540;2023-11-22T04:24:45;101409.09;;;-0.99;100.00
2188;BME280;1100;52.014;8.540;2023-11-22T04:27:11;101408.94;;;-1.03;100.00
2188;BME280;1100;52.014;8.540;2023-11-22T04:29:36;101406.88;;;-1.06;100.00
2188;BME280;1100;52.014;8.540;2023-11-22T04:32:01;101425.00;;;-1.01;100.00
2188;BME280;1100;52.014;8.540;2023-11-22T04:34:27;101419.53;;;-1.01;100.00
2188;BME280;1100;52.014;8.540;2023-11-22T04:36:53;101419.03;;;-1.03;100.00
2188;BME280;1100;52.014;8.540;2023-11-22T04:39:18;101420.19;;;-1.04;100.00
2188;BME280;1100;52.014;8.540;2023-11-22T04:41:44;101423.41;;;-1.02;100.00
2188;BME280;1100;52.014;8.540;2023-11-22T04:44:09;101420.19;;;-1.04;100.00
2188;BME280;1100;52.014;8.540;2023-11-22T04:46:34;101422.44;;;-1.06;100.00
2188;BME280;1100;52.014;8.540;2023-11-22T04:49:00;101426.91;;;-1.02;100.00
2188;BME280;1100;52.014;8.540;2023-11-22T04:51:26;101430.44;;;-1.01;100.00
2188;BME280;1100;52.014;8.540;2023-11-22T04:53:54;101435.91;;;-1.01;100.00
2188;BME280;1100;52.014;8.540;2023-11-22T04:56:19;101434.31;;;-1.02;100.00
2188;BME280;1100;52.014;8.540;2023-11-22T04:58:45;101434.31;;;-1.02;100.00
2188;BME280;1100;52.014;8.540;2023-11-22T05:01:10;101420.84;;;-1.07;100.00
2188;BME280;1100;52.014;8.540;2023-11-22T05:03:35;101429.63;;;-1.02;100.00
2188;BME280;1100;52.014;8.540;2023-11-22T05:06:02;101420.03;;;-1.08;100.00
2188;BME280;1100;52.014;8.540;2023-11-22T05:08:28;101427.59;;;-1.14;100.00
2188;BME280;1100;52.014;8.540;2023-11-22T05:10:53;101426.66;;;-1.18;100.00
2188;BME280;1100;52.014;8.540;2023-11-22T05:13:19;101426.81;;;-1.23;100.00
2188;BME280;1100;52.014;8.540;2023-11-22T05:15:44;101426.00;;;-1.23;100.00
2188;BME280;1100;52.014;8.540;2023-11-22T05:18:10;101423.94;;;-1.27;100.00
2188;BME280;1100;52.014;8.540;2023-11-22T05:20:35;101438.38;;;-1.26;100.00
2188;BME280;1100;52.014;8.540;2023-11-22T05:23:00;101448.50;;;-1.27;100.00
2188;BME280;1100;52.014;8.540;2023-11-22T05:25:26;101459.59;;;-1.32;100.00
2188;BME280;1100;52.014;8.540;2023-11-22T05:27:51;101466.97;;;-1.32;100.00
2188;BME280;1100;52.014;8.540;2023-11-22T05:30:17;101461.66;;;-1.38;100.00
2188;BME280;1100;52.014;8.540;2023-11-22T05:32:42;101457.66;;;-1.40;100.00
2188;BME280;1100;52.014;8.540;2023-11-22T05:35:07;101460.72;;;-1.42;100.00
2188;BME280;1100;52.014;8.540;2023-11-22T05:37:35;101472.72;;;-1.43;100.00
2188;BME280;1100;52.014;8.540;2023-11-22T05:40:02;101484.78;;;-1.44;100.00
2188;BME280;1100;52.014;8.540;2023-11-22T05:42:28;101492.47;;;-1.46;100.00
2188;BME280;1100;52.014;8.540;2023-11-22T05:44:53;101480.59;;;-1.50;100.00
2188;BME280;1100;52.014;8.540;2023-11-22T05:47:19;101468.25;;;-1.56;100.00
2188;BME280;1100;52.014;8.540;2023-11-22T05:49:44;101465.53;;;-1.56;100.00
2188;BME280;1100;52.014;8.540;2023-11-22T05:52:09;101462.81;;;-1.56;100.00
2188;BME280;1100;52.014;8.540;2023-11-22T05:54:35;101457.34;;;-1.56;100.00
2188;BME280;1100;52.014;8.540;2023-11-22T05:57:00;101455.28;;;-1.59;100.00
2188;BME280;1100;52.014;8.540;2023-11-22T05:59:25;101468.09;;;-1.60;100.00
2188;BME280;1100;52.014;8.540;2023-11-22T06:01:51;101463.44;;;-1.59;100.00
2188;BME280;1100;52.014;8.540;2023-11-22T06:04:16;101463.94;;;-1.57;100.00
2188;BME280;1100;52.014;8.540;2023-11-22T06:06:42;101455.59;;;-1.61;100.00
2188;BME280;1100;52.014;8.540;2023-11-22T06:09:07;101461.03;;;-1.61;100.00
2188;BME280;1100;52.014;8.540;2023-11-22T06:11:33;101467.31;;;-1.60;100.00
2188;BME280;1100;52.014;8.540;2023-11-22T06:13:59;101477.91;;;-1.59;100.00
2188;BME280;1100;52.014;8.540;2023-11-22T06:16:24;101478.84;;;-1.64;100.00
2188;BME280;1100;52.014;8.540;2023-11-22T06:18:49;101485.09;;;-1.63;100.00
2188;BME280;1100;52.014;8.540;2023-11-22T06:21:15;101476.59;;;-1.61;100.00
2188;BME280;1100;52.014;8.540;2023-11-22T06:23:40;101481.59;;;-1.64;100.00
2188;BME280;1100;52.014;8.540;2023-11-22T06:26:05;101487.81;;;-1.63;100.00
2188;BME280;1100;52.014;8.540;2023-11-22T06:28:31;101488.63;;;-1.63;100.00
2188;BME280;1100;52.014;8.540;2023-11-22T06:30:56;101489.44;;;-1.62;100.00
2188;BME280;1100;52.014;8.540;2023-11-22T06:33:22;101484.63;;;-1.65;100.00
2188;BME280;1100;52.014;8.540;2023-11-22T06:35:47;101484.47;;;-1.69;100.00
2188;BME280;1100;52.014;8.540;2023-11-22T06:38:13;101479.81;;;-1.68;100.00
2188;BME280;1100;52.014;8.540;2023-11-22T06:40:38;101469.88;;;-1.73;100.00
2188;BME280;1100;52.014;8.540;2023-11-22T06:43:03;101479.97;;;-1.73;100.00
2188;BME280;1100;52.014;8.540;2023-11-22T06:45:32;101467.78;;;-1.76;100.00
2188;BME280;1100;52.014;8.540;2023-11-22T06:47:57;101463.94;;;-1.75;100.00
2188;BME280;1100;52.014;8.540;2023-11-22T06:50:23;101455.75;;;-1.75;100.00
2188;BME280;1100;52.014;8.540;2023-11-22T06:52:49;101458.16;;;-1.73;100.00
2188;BME280;1100;52.014;8.540;2023-11-22T06:55:15;101452.38;;;-1.72;100.00
2188;BME280;1100;52.014;8.540;2023-11-22T06:57:40;101461.84;;;-1.69;100.00
2188;BME280;1100;52.014;8.540;2023-11-22T07:00:06;101457.03;;;-1.72;100.00
2188;BME280;1100;52.014;8.540;2023-11-22T07:02:34;101445.97;;;-1.76;100.00
2188;BME280;1100;52.014;8.540;2023-11-22T07:05:03;101449.16;;;-1.74;100.00
2188;BME280;1100;52.014;8.540;2023-11-22T07:07:31;101450.47;;;-1.71;100.00
2188;BME280;1100;52.014;8.540;2023-11-22T07:09:57;101467.47;;;-1.66;100.00
2188;BME280;1100;52.014;8.540;2023-11-22T07:12:24;101472.28;;;-1.63;100.00
2188;BME280;1100;52.014;8.540;2023-11-22T07:14:49;101465.84;;;-1.58;100.00
2188;BME280;1100;52.014;8.540;2023-11-22T07:17:15;101477.41;;;-1.52;100.00
2188;BME280;1100;52.014;8.540;2023-11-22T07:19:40;101475.16;;;-1.50;100.00
2188;BME280;1100;52.014;8.540;2023-11-22T07:22:15;101469.38;;;-1.48;100.00
2188;BME280;1100;52.014;8.540;2023-11-22T07:24:44;101479.63;;;-1.36;100.00
2188;BME280;1100;52.014;8.540;2023-11-22T07:27:13;101473.53;;;-1.24;100.00
2188;BME280;1100;52.014;8.540;2023-11-22T07:29:42;101475.13;;;-1.15;100.00
2188;BME280;1100;52.014;8.540;2023-11-22T07:32:08;101483.28;;;-1.06;100.00
2188;BME280;1100;52.014;8.540;2023-11-22T07:34:34;101478.13;;;-0.98;100.00
2188;BME280;1100;52.014;8.540;2023-11-22T07:37:00;101472.66;;;-0.90;100.00
2188;BME280;1100;52.014;8.540;2023-11-22T07:39:25;101471.69;;;-0.85;100.00
2188;BME280;1100;52.014;8.540;2023-11-22T07:41:55;101475.97;;;-0.75;100.00
2188;BME280;1100;52.014;8.540;2023-11-22T07:44:21;101479.34;;;-0.69;100.00
2188;BME280;1100;52.014;8.540;2023-11-22T07:46:47;101475.28;;;-0.63;100.00
2188;BME280;1100;52.014;8.540;2023-11-22T07:49:12;101483.28;;;-0.58;100.00
2188;BME280;1100;52.014;8.540;2023-11-22T07:51:39;101489.84;;;-0.50;100.00
2188;BME280;1100;52.014;8.540;2023-11-22T07:54:04;101490.16;;;-0.43;100.00
2188;BME280;1100;52.014;8.540;2023-11-22T07:56:31;101492.34;;;-0.36;100.00
2188;BME280;1100;52.014;8.540;2023-11-22T07:59:00;101509.72;;;-0.32;100.00
2188;BME280;1100;52.014;8.540;2023-11-22T08:01:26;101509.38;;;-0.30;100.00
2188;BME280;1100;52.014;8.540;2023-11-22T08:03:55;101518.50;;;-0.26;100.00
2188;BME280;1100;52.014;8.540;2023-11-22T08:06:21;101513.66;;;-0.20;100.00
2188;BME280;1100;52.014;8.540;2023-11-22T08:08:46;101514.28;;;-0.15;100.00
2188;BME280;1100;52.014;8.540;2023-11-22T08:11:11;101513.75;;;-0.08;100.00
2188;BME280;1100;52.014;8.540;2023-11-22T08:13:44;101510.81;;;-0.03;100.00
2188;BME280;1100;52.014;8.540;2023-11-22T08:16:10;101501.19;;;0.00;100.00
2188;BME280;1100;52.014;8.540;2023-11-22T08:18:40;101508.06;;;0.06;100.00
2188;BME280;1100;52.014;8.540;2023-11-22T08:21:08;101498.84;;;0.11;100.00
2188;BME280;1100;52.014;8.540;2023-11-22T08:23:33;101500.03;;;0.22;100.00
2188;BME280;1100;52.014;8.540;2023-11-22T08:26:01;101518.34;;;0.31;100.00
2188;BME280;1100;52.014;8.540;2023-11-22T08:28:27;101511.34;;;0.42;100.00
2188;BME280;1100;52.014;8.540;2023-11-22T08:30:54;101515.53;;;0.61;100.00
2188;BME280;1100;52.014;8.540;2023-11-22T08:33:19;101517.09;;;0.83;100.00
2188;BME280;1100;52.014;8.540;2023-11-22T08:35:45;101520.81;;;1.00;100.00
2188;BME280;1100;52.014;8.540;2023-11-22T08:38:15;101534.97;;;1.15;100.00
2188;BME280;1100;52.014;8.540;2023-11-22T08:40:42;101542.78;;;1.25;100.00
2188;BME280;1100;52.014;8.540;2023-11-22T08:43:07;101545.41;;;1.21;100.00
2188;BME280;1100;52.014;8.540;2023-11-22T08:45:32;101544.47;;;1.17;100.00
2188;BME280;1100;52.014;8.540;2023-11-22T08:47:58;101539.69;;;1.14;100.00
2188;BME280;1100;52.014;8.540;2023-11-22T08:50:24;101541.47;;;1.10;100.00
2188;BME280;1100;52.014;8.540;2023-11-22T08:52:49;101553.72;;;1.13;100.00
2188;BME280;1100;52.014;8.540;2023-11-22T08:55:18;101574.94;;;1.16;100.00
2188;BME280;1100;52.014;8.540;2023-11-22T08:57:47;101576.41;;;1.13;100.00
2188;BME280;1100;52.014;8.540;2023-11-22T09:00:13;101581.09;;;1.13;100.00
2188;BME280;1100;52.014;8.540;2023-11-22T09:02:39;101585.56;;;1.17;100.00
2188;BME280;1100;52.014;8.540;2023-11-22T09:05:06;101595.53;;;1.22;100.00
2188;BME280;1100;52.014;8.540;2023-11-22T09:07:34;101593.03;;;1.29;100.00
2188;BME280;1100;52.014;8.540;2023-11-22T09:10:01;101578.09;;;1.39;100.00
2188;BME280;1100;52.014;8.540;2023-11-22T09:12:34;101569.66;;;1.44;100.00
2188;BME280;1100;52.014;8.540;2023-11-22T09:15:00;101570.09;;;1.46;100.00
2188;BME280;1100;52.014;8.540;2023-11-22T09:17:25;101550.59;;;1.48;100.00
2188;BME280;1100;52.014;8.540;2023-11-22T09:19:50;101528.31;;;1.49;100.00
2188;BME280;1100;52.014;8.540;2023-11-22T09:22:16;101547.16;;;1.51;100.00
2188;BME280;1100;52.014;8.540;2023-11-22T09:24:43;101544.91;;;1.53;100.00
2188;BME280;1100;52.014;8.540;2023-11-22T09:27:10;101548.78;;;1.52;100.00
2188;BME280;1100;52.014;8.540;2023-11-22T09:29:40;101552.41;;;1.44;100.00
2188;BME280;1100;52.014;8.540;2023-11-22T09:32:05;101550.94;;;1.46;100.00
2188;BME280;1100;52.014;8.540;2023-11-22T09:34:31;101559.97;;;1.47;100.00
2188;BME280;1100;52.014;8.540;2023-11-22T09:36:57;101558.94;;;1.52;100.00
2188;BME280;1100;52.014;8.540;2023-11-22T09:39:22;101558.72;;;1.57;100.00
2188;BME280;1100;52.014;8.540;2023-11-22T09:41:50;101550.94;;;1.59;100.00
2188;BME280;1100;52.014;8.540;2023-11-22T09:44:17;101551.75;;;1.59;100.00
2188;BME280;1100;52.014;8.540;2023-11-22T09:46:42;101548.19;;;1.59;100.00
2188;BME280;1100;52.014;8.540;2023-11-22T09:49:10;101542.28;;;1.57;100.00
2188;BME280;1100;52.014;8.540;2023-11-22T09:51:43;101542.97;;;1.54;100.00
2188;BME280;1100;52.014;8.540;2023-11-22T09:54:09;101560.19;;;1.54;100.00
2188;BME280;1100;52.014;8.540;2023-11-22T09:56:40;101555.03;;;1.53;100.00
2188;BME280;1100;52.014;8.540;2023-11-22T09:59:06;101566.59;;;1.58;100.00
2188;BME280;1100;52.014;8.540;2023-11-22T10:01:32;101562.72;;;1.59;100.00
2188;BME280;1100;52.014;8.540;2023-11-22T10:04:01;101555.75;;;1.62;100.00
2188;BME280;1100;52.014;8.540;2023-11-22T10:06:27;101561.34;;;1.66;100.00
2188;BME280;1100;52.014;8.540;2023-11-22T10:08:58;101554.28;;;1.65;100.00
2188;BME280;1100;52.014;8.540;2023-11-22T10:11:24;101543.75;;;1.67;100.00
2188;BME280;1100;52.014;8.540;2023-11-22T10:13:50;101549.50;;;1.74;100.00
2188;BME280;1100;52.014;8.540;2023-11-22T10:16:17;101546.06;;;1.77;100.00
2188;BME280;1100;52.014;8.540;2023-11-22T10:18:44;101542.84;;;1.75;100.00
2188;BME280;1100;52.014;8.540;2023-11-22T10:21:26;101539.91;;;1.80;100.00
2188;BME280;1100;52.014;8.540;2023-11-22T10:24:02;101535.53;;;1.79;100.00
2188;BME280;1100;52.014;8.540;2023-11-22T10:26:28;101538.28;;;1.79;100.00
2188;BME280;1100;52.014;8.540;2023-11-22T10:28:55;101538.75;;;1.81;100.00
2188;BME280;1100;52.014;8.540;2023-11-22T10:31:21;101555.66;;;1.83;100.00
2188;BME280;1100;52.014;8.540;2023-11-22T10:33:47;101556.34;;;1.80;100.00
2188;BME280;1100;52.014;8.540;2023-11-22T10:36:14;101559.78;;;1.90;100.00
2188;BME280;1100;52.014;8.540;2023-11-22T10:38:40;101549.13;;;2.01;100.00
2188;BME280;1100;52.014;8.540;2023-11-22T10:41:10;101548.34;;;2.00;100.00
2188;BME280;1100;52.014;8.540;2023-11-22T10:43:35;101538.06;;;1.97;100.00
2188;BME280;1100;52.014;8.540;2023-11-22T10:46:05;101545.59;;;2.00;100.00
2188;BME280;1100;52.014;8.540;2023-11-22T10:48:32;101546.97;;;2.06;100.00
2188;BME280;1100;52.014;8.540;2023-11-22T10:51:02;101546.28;;;2.09;100.00
2188;BME280;1100;52.014;8.540;2023-11-22T10:53:33;101538.03;;;2.09;100.00
2188;BME280;1100;52.014;8.540;2023-11-22T10:56:14;101544.41;;;2.14;100.00
2188;BME280;1100;52.014;8.540;2023-11-22T10:58:51;101535.41;;;2.13;100.00
2188;BME280;1100;52.014;8.540;2023-11-22T11:01:20;101531.06;;;2.12;100.00
2188;BME280;1100;52.014;8.540;2023-11-22T11:04:01;101537.81;;;2.15;100.00
2188;BME280;1100;52.014;8.540;2023-11-22T11:06:32;101533.09;;;2.15;100.00
2188;BME280;1100;52.014;8.540;2023-11-22T11:09:00;101532.41;;;2.18;100.00
2188;BME280;1100;52.014;8.540;2023-11-22T11:11:28;101529.22;;;2.16;100.00
2188;BME280;1100;52.014;8.540;2023-11-22T11:13:54;101530.72;;;2.14;100.00
2188;BME280;1100;52.014;8.540;2023-11-22T11:16:21;101523.63;;;2.13;100.00
2188;BME280;1100;52.014;8.540;2023-11-22T11:18:47;101512.66;;;2.13;100.00
2188;BME280;1100;52.014;8.540;2023-11-22T11:21:15;101510.03;;;2.16;100.00
2188;BME280;1100;52.014;8.540;2023-11-22T11:23:40;101519.50;;;2.19;100.00
2188;BME280;1100;52.014;8.540;2023-11-22T11:26:15;101519.03;;;2.17;100.00
2188;BME280;1100;52.014;8.540;2023-11-22T11:28:47;101497.09;;;2.17;100.00
2188;BME280;1100;52.014;8.540;2023-11-22T11:31:14;101514.00;;;2.19;100.00
2188;BME280;1100;52.014;8.540;2023-11-22T11:36:28;101499.63;;;2.09;100.00
2188;BME280;1100;52.014;8.540;2023-11-22T11:39:04;101500.09;;;2.11;100.00
2188;BME280;1100;52.014;8.540;2023-11-22T11:41:32;101496.88;;;2.09;100.00
2188;BME280;1100;52.014;8.540;2023-11-22T11:43:58;101493.78;;;2.11;100.00
2188;BME280;1100;52.014;8.540;2023-11-22T11:46:26;101487.06;;;2.08;100.00
2188;BME280;1100;52.014;8.540;2023-11-22T11:48:53;101484.69;;;2.07;100.00
2188;BME280;1100;52.014;8.540;2023-11-22T11:51:22;101485.91;;;2.09;100.00
2188;BME280;1100;52.014;8.540;2023-11-22T11:53:48;101469.22;;;2.15;100.00
2188;BME280;1100;52.014;8.540;2023-11-22T11:56:14;101459.84;;;2.16;100.00
2188;BME280;1100;52.014;8.540;2023-11-22T11:58:43;101447.72;;;2.17;100.00
2188;BME280;1100;52.014;8.540;2023-11-22T12:01:08;101435.16;;;2.16;100.00
2188;BME280;1100;52.014;8.540;2023-11-22T12:03:37;101438.78;;;2.20;100.00
2188;BME280;1100;52.014;8.540;2023-11-22T12:06:04;101418.19;;;2.26;100.00
2188;BME280;1100;52.014;8.540;2023-11-22T12:08:30;101392.78;;;2.29;100.00
2188;BME280;1100;52.014;8.540;2023-11-22T12:10:58;101379.88;;;2.30;100.00
2188;BME280;1100;52.014;8.540;2023-11-22T12:13:24;101371.75;;;2.33;100.00
2188;BME280;1100;52.014;8.540;2023-11-22T12:15:51;101367.38;;;2.32;100.00
2188;BME280;1100;52.014;8.540;2023-11-22T12:18:18;101375.31;;;2.21;100.00
2188;BME280;1100;52.014;8.540;2023-11-22T12:20:57;101360.38;;;2.19;100.00
2188;BME280;1100;52.014;8.540;2023-11-22T12:23:24;101362.59;;;2.29;100.00
2188;BME280;1100;52.014;8.540;2023-11-22T12:25:57;101363.31;;;2.26;100.00
2188;BME280;1100;52.014;8.540;2023-11-22T12:28:27;101353.41;;;2.38;100.00
2188;BME280;1100;52.014;8.540;2023-11-22T12:30:52;101348.50;;;2.59;100.00
2188;BME280;1100;52.014;8.540;2023-11-22T12:33:18;101347.69;;;2.59;100.00
2188;BME280;1100;52.014;8.540;2023-11-22T12:35:45;101341.13;;;2.47;100.00
2188;BME280;1100;52.014;8.540;2023-11-22T12:38:10;101341.66;;;2.53;100.00
2188;BME280;1100;52.014;8.540;2023-11-22T12:40:36;101331.13;;;2.55;100.00
2188;BME280;1100;52.014;8.540;2023-11-22T12:43:02;101331.41;;;2.50;100.00
2188;BME280;1100;52.014;8.540;2023-11-22T12:45:29;101324.22;;;2.45;100.00
2188;BME280;1100;52.014;8.540;2023-11-22T12:47:56;101315.88;;;2.42;100.00
2188;BME280;1100;52.014;8.540;2023-11-22T12:50:37;101307.50;;;2.51;100.00
2188;BME280;1100;52.014;8.540;2023-11-22T12:53:10;101312.00;;;2.59;100.00
2188;BME280;1100;52.014;8.540;2023-11-22T12:55:37;101313.25;;;2.61;100.00
2188;BME280;1100;52.014;8.540;2023-11-22T12:58:02;101311.84;;;2.68;100.00
2188;BME280;1100;52.014;8.540;2023-11-22T13:00:29;101319.44;;;2.58;100.00
2188;BME280;1100;52.014;8.540;2023-11-22T13:02:58;101332.91;;;2.64;100.00
2188;BME280;1100;52.014;8.540;2023-11-22T13:05:23;101339.03;;;2.57;100.00